Varamar — CURZ9 — position and weather

sailwx.info

Track history (hours):
 
Tides and Currents Weather Stations Pressure Air Temp Water Temp Dewpoint Dewpoint Depression Visibility Wind Speed Wind Dir Waves Ship Positions

Varamar

Last reported at 2018-Feb-20 04:00 UTC. Time now 2018-Feb-20 04:10 UTC.
Position N 38°26' W 009°07'.

Length 18 m.

Type: Fishing. MMSI: 255512000.

Date/timePositionNaut miles runAvg speedWind from/ knotsBaromVisibWave heightAir tempDewpointWater temp
2018-Feb-20 04:00N 38°26' W 009°07'0 0.0
2018-Feb-20 03:30N 38°26' W 009°07'0 0.6
2018-Feb-20 03:00N 38°26' W 009°06'5 9.2
2018-Feb-20 02:30N 38°24' W 009°12'4 9.0
2018-Feb-20 02:00N 38°25' W 009°17'30 6.8
2018-Feb-19 21:37N 38°38' W 009°52'1 3.0
2018-Feb-19 21:15N 38°37' W 009°53'0 1.4
2018-Feb-19 21:00N 38°37' W 009°53'0 0.8
2018-Feb-19 20:29N 38°37' W 009°53'0 0.7
2018-Feb-19 20:00N 38°37' W 009°53'0 1.0
2018-Feb-19 19:30N 38°37' W 009°52'1 1.1
2018-Feb-19 19:00N 38°36' W 009°52'1 1.2
2018-Feb-19 18:30N 38°36' W 009°52'1 1.1
2018-Feb-19 18:00N 38°35' W 009°51'1 1.2
2018-Feb-19 17:30N 38°35' W 009°51'1 1.1
2018-Feb-19 17:00N 38°34' W 009°51'0 0.6
2018-Feb-19 16:29N 38°34' W 009°51'0 0.2
2018-Feb-19 16:00N 38°34' W 009°51'3 5.6
2018-Feb-19 15:30N 38°35' W 009°54'5 4.1
2018-Feb-19 14:20N 38°39' W 009°52'2 5.0
2018-Feb-19 13:52N 38°41' W 009°51'1 2.7
2018-Feb-19 13:30N 38°42' W 009°50'1 2.5
2018-Feb-19 13:00N 38°41' W 009°52'0 0.5
2018-Feb-19 12:30N 38°41' W 009°52'0 0.9
2018-Feb-19 12:00N 38°41' W 009°52'1 1.0
2018-Feb-19 11:30N 38°40' W 009°52'1 1.0
2018-Feb-19 11:00N 38°40' W 009°53'0 0.6
2018-Feb-19 10:30N 38°40' W 009°53'0 0.9
2018-Feb-19 10:00N 38°39' W 009°53'0 0.9
2018-Feb-19 09:30N 38°39' W 009°53'1 1.1
2018-Feb-19 09:00N 38°38' W 009°54'0 0.8
2018-Feb-19 08:30N 38°38' W 009°54'1 1.1
2018-Feb-19 08:00N 38°37' W 009°54'1 1.2
2018-Feb-19 07:30N 38°37' W 009°54'1 1.0
2018-Feb-19 06:58N 38°36' W 009°55'0 0.6
2018-Feb-19 06:30N 38°36' W 009°55'0 0.2
2018-Feb-19 05:58N 38°36' W 009°55'1 1.3
2018-Feb-19 05:30N 38°36' W 009°55'5 9.0
2018-Feb-19 05:00N 38°34' W 009°49'5 9.1
2018-Feb-19 04:30N 38°33' W 009°44'5 9.1
2018-Feb-19 04:00N 38°31' W 009°38'5 9.0
2018-Feb-19 03:28N 38°30' W 009°32'5 9.6
2018-Feb-19 02:59N 38°28' W 009°27'5 9.6
2018-Feb-19 02:30N 38°26' W 009°21'5 9.5
2018-Feb-19 01:59N 38°25' W 009°15'4 8.8
2018-Feb-19 01:29N 38°25' W 009°10'3 5.8
2018-Feb-19 01:00N 38°26' W 009°07'0 0.0
2018-Feb-17 09:02N 38°26' W 009°07'0 0.0
2018-Feb-17 08:58N 38°26' W 009°07'0 0.2
2018-Feb-17 08:22N 38°26' W 009°07'5 8.3
2018-Feb-17 07:45N 38°24' W 009°13'3 9.0
2018-Feb-17 07:28N 38°25' W 009°16'4 8.8
2018-Feb-17 06:59N 38°26' W 009°21'5 9.0
2018-Feb-17 06:28N 38°27' W 009°27'4 8.9
2018-Feb-17 06:00N 38°29' W 009°32'5 9.2
2018-Feb-17 05:29N 38°30' W 009°38'7 9.4
2018-Feb-17 04:45N 38°32' W 009°46'7 5.0
2018-Feb-17 03:19N 38°38' W 009°51'1 3.5
2018-Feb-17 03:00N 38°38' W 009°52'0 0.1
2018-Feb-17 02:10N 38°38' W 009°52'0 0.5
2018-Feb-17 01:55N 38°38' W 009°52'0 0.2
2018-Feb-17 01:30N 38°38' W 009°52'1 1.2
2018-Feb-17 00:59N 38°38' W 009°52'1 1.3
2018-Feb-17 00:30N 38°37' W 009°52'1 1.3
2018-Feb-17 00:01N 38°36' W 009°51'0 0.9
2018-Feb-16 23:30N 38°36' W 009°51'1 1.3
2018-Feb-16 23:00N 38°35' W 009°51'1 1.2
2018-Feb-16 22:30N 38°35' W 009°51'1 1.2
2018-Feb-16 22:00N 38°34' W 009°50'1 1.1
2018-Feb-16 21:30N 38°34' W 009°50'0 0.6
2018-Feb-16 20:53N 38°33' W 009°50'0 0.4
2018-Feb-16 20:28N 38°34' W 009°50'2 4.4
2018-Feb-16 20:00N 38°34' W 009°53'2 4.5
2018-Feb-16 19:28N 38°36' W 009°54'7 5.1
2018-Feb-16 18:07N 38°43' W 009°50'2 5.0
2018-Feb-16 17:43N 38°41' W 009°52'0 1.0
2018-Feb-16 17:29N 38°41' W 009°52'0 0.2
2018-Feb-16 16:58N 38°41' W 009°52'0 0.6
2018-Feb-16 16:30N 38°41' W 009°52'0 0.8
2018-Feb-16 16:00N 38°40' W 009°52'0 1.0
2018-Feb-16 15:30N 38°40' W 009°53'0 0.9
2018-Feb-16 14:59N 38°39' W 009°53'0 0.7
2018-Feb-16 14:29N 38°39' W 009°53'0 0.9
2018-Feb-16 14:00N 38°39' W 009°53'1 1.0
2018-Feb-16 13:30N 38°38' W 009°53'1 1.0
2018-Feb-16 12:58N 38°38' W 009°53'1 1.3
2018-Feb-16 12:30N 38°37' W 009°54'0 1.0
2018-Feb-16 12:00N 38°37' W 009°54'0 1.0
2018-Feb-16 11:30N 38°36' W 009°54'0 0.7
2018-Feb-16 11:00N 38°36' W 009°55'1 1.1
2018-Feb-16 10:30N 38°36' W 009°54'5 9.2
2018-Feb-16 10:00N 38°34' W 009°49'5 9.1
2018-Feb-16 09:30N 38°32' W 009°43'5 9.0
2018-Feb-16 08:57N 38°31' W 009°37'4 9.2
2018-Feb-16 08:30N 38°30' W 009°32'5 9.3
2018-Feb-16 08:00N 38°28' W 009°27'5 9.3
2018-Feb-16 07:29N 38°26' W 009°21'4 9.3
2018-Feb-16 07:00N 38°25' W 009°15'5 8.7
2018-Feb-16 06:28N 38°25' W 009°09'3 5.7
2018-Feb-16 06:00N 38°26' W 009°07'0 0.0
2018-Feb-15 10:02N 38°26' W 009°07'0 0.0
2018-Feb-15 09:57N 38°26' W 009°07'0 0.3
2018-Feb-15 09:21N 38°26' W 009°07'0 0.0
2018-Feb-15 09:00N 38°26' W 009°07'0 0.0
2018-Feb-15 08:30N 38°26' W 009°07'5 8.1
2018-Feb-15 07:52N 38°24' W 009°13'3 9.1
2018-Feb-15 07:29N 38°25' W 009°17'5 9.2
2018-Feb-15 06:55N 38°26' W 009°24'4 9.3
2018-Feb-15 06:28N 38°27' W 009°29'4 9.1
2018-Feb-15 06:00N 38°29' W 009°34'5 9.3
2018-Feb-15 05:27N 38°30' W 009°40'4 9.5
2018-Feb-15 04:59N 38°31' W 009°46'4 7.1
2018-Feb-15 04:27N 38°33' W 009°50'4 5.7
2018-Feb-15 03:41N 38°37' W 009°52'1 4.9
2018-Feb-15 03:30N 38°38' W 009°52'1 1.7
2018-Feb-15 03:00N 38°37' W 009°52'2 3.4
2018-Feb-15 02:30N 38°36' W 009°51'1 1.6
2018-Feb-15 02:00N 38°35' W 009°50'0 0.5
2018-Feb-15 01:30N 38°35' W 009°50'0 0.9
2018-Feb-15 01:00N 38°34' W 009°50'1 1.0
2018-Feb-15 00:30N 38°34' W 009°50'1 1.1
2018-Feb-15 00:00N 38°33' W 009°49'1 1.1
2018-Feb-14 23:30N 38°33' W 009°49'1 1.1
2018-Feb-14 23:00N 38°32' W 009°49'1 1.0
2018-Feb-14 22:30N 38°32' W 009°48'0 0.8
2018-Feb-14 22:00N 38°32' W 009°48'2 4.3
2018-Feb-14 21:30N 38°33' W 009°50'5 9.3
2018-Feb-14 21:00N 38°35' W 009°55'3 4.7
2018-Feb-14 20:22N 38°38' W 009°53'2 5.5
2018-Feb-14 19:56N 38°40' W 009°52'2 5.4
2018-Feb-14 19:30N 38°42' W 009°51'2 2.8
2018-Feb-14 18:54N 38°41' W 009°52'0 0.7
2018-Feb-14 18:28N 38°41' W 009°52'0 0.8
2018-Feb-14 18:00N 38°40' W 009°52'0 0.7
2018-Feb-14 17:26N 38°40' W 009°53'1 0.8
2018-Feb-14 15:41N 38°39' W 009°53'0 1.2
2018-Feb-14 15:25N 38°38' W 009°53'1 1.1
2018-Feb-14 14:50N 38°38' W 009°53'0 1.0
2018-Feb-14 14:30N 38°37' W 009°53'1 1.0
2018-Feb-14 13:44N 38°37' W 009°54'0 1.2
2018-Feb-14 13:28N 38°36' W 009°54'1 1.1
2018-Feb-14 13:00N 38°36' W 009°54'0 0.9
2018-Feb-14 12:30N 38°36' W 009°55'0 0.4
2018-Feb-14 11:59N 38°35' W 009°55'2 3.0
2018-Feb-14 11:28N 38°35' W 009°53'4 8.3
2018-Feb-14 10:59N 38°33' W 009°48'5 8.4
2018-Feb-14 10:22N 38°32' W 009°42'4 8.6
2018-Feb-14 09:56N 38°31' W 009°37'4 8.6
2018-Feb-14 09:29N 38°29' W 009°33'4 8.8
2018-Feb-14 09:00N 38°28' W 009°28'4 8.8
2018-Feb-14 08:30N 38°27' W 009°22'5 9.0
2018-Feb-14 07:58N 38°25' W 009°16'7 8.6
2018-Feb-14 07:11N 38°26' W 009°08'1 6.3
2018-Feb-14 07:00N 38°26' W 009°07'0 0.0
2018-Feb-14 06:20N 38°26' W 009°07'0 0.0
2018-Feb-14 06:01N 38°26' W 009°07'  
2018-Feb-11 19:56N 38°26' W 009°07'4 6.9
2018-Feb-11 19:21N 38°24' W 009°11'4 9.5
2018-Feb-11 18:53N 38°25' W 009°17'4 9.2
2018-Feb-11 18:29N 38°26' W 009°21'5 9.1
2018-Feb-11 17:58N 38°26' W 009°27'5 9.2
2018-Feb-11 17:28N 38°27' W 009°33'6 9.4
2018-Feb-11 16:51N 38°28' W 009°40'4 9.6
2018-Feb-11 16:27N 38°29' W 009°45'7 6.6
2018-Feb-11 15:21N 38°35' W 009°51'3 5.7
2018-Feb-11 14:51N 38°38' W 009°52'4 6.8
2018-Feb-11 14:13N 38°35' W 009°56'1 5.2
2018-Feb-11 14:00N 38°36' W 009°55'8 5.3
2018-Feb-11 12:33N 38°42' W 009°51'0 3.2
2018-Feb-11 12:30N 38°42' W 009°50'2 4.1
2018-Feb-11 12:00N 38°41' W 009°52'4 8.5
2018-Feb-11 11:30N 38°39' W 009°47'4 8.5
2018-Feb-11 11:00N 38°37' W 009°42'4 8.5
2018-Feb-11 10:30N 38°35' W 009°37'4 8.5
2018-Feb-11 10:00N 38°33' W 009°32'4 8.5
2018-Feb-11 09:30N 38°31' W 009°28'4 8.6
2018-Feb-11 08:59N 38°29' W 009°23'4 8.7
2018-Feb-11 08:30N 38°26' W 009°18'4 8.7
2018-Feb-11 08:00N 38°24' W 009°13'4 8.3
2018-Feb-11 07:29N 38°25' W 009°08'1 2.7
2018-Feb-11 06:59N 38°26' W 009°07'0 0.0
2018-Feb-11 06:30N 38°26' W 009°07'0 0.3
2018-Feb-11 06:00N 38°26' W 009°07'  
Track history (hours):
 
Tides and Currents Weather Stations Pressure Air Temp Water Temp Dewpoint Dewpoint Depression Visibility Wind Speed Wind Dir Waves Ship Positions

Varamar

Last reported at 2018-Feb-20 04:00 UTC. Time now 2018-Feb-20 04:10 UTC.
Position N 38°26' W 009°07'.

Length 18 m.

Type: Fishing. MMSI: 255512000.

Date/timePositionNaut miles runAvg speedWind from/ knotsBaromVisibWave heightAir tempDewpointWater temp
2018-Feb-20 04:00N 38°26' W 009°07'0 0.0
2018-Feb-20 03:30N 38°26' W 009°07'0 0.6
2018-Feb-20 03:00N 38°26' W 009°06'5 9.2
2018-Feb-20 02:30N 38°24' W 009°12'4 9.0
2018-Feb-20 02:00N 38°25' W 009°17'30 6.8
2018-Feb-19 21:37N 38°38' W 009°52'1 3.0
2018-Feb-19 21:15N 38°37' W 009°53'0 1.4
2018-Feb-19 21:00N 38°37' W 009°53'0 0.8
2018-Feb-19 20:29N 38°37' W 009°53'0 0.7
2018-Feb-19 20:00N 38°37' W 009°53'0 1.0
2018-Feb-19 19:30N 38°37' W 009°52'1 1.1
2018-Feb-19 19:00N 38°36' W 009°52'1 1.2
2018-Feb-19 18:30N 38°36' W 009°52'1 1.1
2018-Feb-19 18:00N 38°35' W 009°51'1 1.2
2018-Feb-19 17:30N 38°35' W 009°51'1 1.1
2018-Feb-19 17:00N 38°34' W 009°51'0 0.6
2018-Feb-19 16:29N 38°34' W 009°51'0 0.2
2018-Feb-19 16:00N 38°34' W 009°51'3 5.6
2018-Feb-19 15:30N 38°35' W 009°54'5 4.1
2018-Feb-19 14:20N 38°39' W 009°52'2 5.0
2018-Feb-19 13:52N 38°41' W 009°51'1 2.7
2018-Feb-19 13:30N 38°42' W 009°50'1 2.5
2018-Feb-19 13:00N 38°41' W 009°52'0 0.5
2018-Feb-19 12:30N 38°41' W 009°52'0 0.9
2018-Feb-19 12:00N 38°41' W 009°52'1 1.0
2018-Feb-19 11:30N 38°40' W 009°52'1 1.0
2018-Feb-19 11:00N 38°40' W 009°53'0 0.6
2018-Feb-19 10:30N 38°40' W 009°53'0 0.9
2018-Feb-19 10:00N 38°39' W 009°53'0 0.9
2018-Feb-19 09:30N 38°39' W 009°53'1 1.1
2018-Feb-19 09:00N 38°38' W 009°54'0 0.8
2018-Feb-19 08:30N 38°38' W 009°54'1 1.1
2018-Feb-19 08:00N 38°37' W 009°54'1 1.2
2018-Feb-19 07:30N 38°37' W 009°54'1 1.0
2018-Feb-19 06:58N 38°36' W 009°55'0 0.6
2018-Feb-19 06:30N 38°36' W 009°55'0 0.2
2018-Feb-19 05:58N 38°36' W 009°55'1 1.3
2018-Feb-19 05:30N 38°36' W 009°55'5 9.0
2018-Feb-19 05:00N 38°34' W 009°49'5 9.1
2018-Feb-19 04:30N 38°33' W 009°44'5 9.1
2018-Feb-19 04:00N 38°31' W 009°38'5 9.0
2018-Feb-19 03:28N 38°30' W 009°32'5 9.6
2018-Feb-19 02:59N 38°28' W 009°27'5 9.6
2018-Feb-19 02:30N 38°26' W 009°21'5 9.5
2018-Feb-19 01:59N 38°25' W 009°15'4 8.8
2018-Feb-19 01:29N 38°25' W 009°10'3 5.8
2018-Feb-19 01:00N 38°26' W 009°07'0 0.0
2018-Feb-17 09:02N 38°26' W 009°07'0 0.0
2018-Feb-17 08:58N 38°26' W 009°07'0 0.2
2018-Feb-17 08:22N 38°26' W 009°07'5 8.3
2018-Feb-17 07:45N 38°24' W 009°13'3 9.0
2018-Feb-17 07:28N 38°25' W 009°16'4 8.8
2018-Feb-17 06:59N 38°26' W 009°21'5 9.0
2018-Feb-17 06:28N 38°27' W 009°27'4 8.9
2018-Feb-17 06:00N 38°29' W 009°32'5 9.2
2018-Feb-17 05:29N 38°30' W 009°38'7 9.4
2018-Feb-17 04:45N 38°32' W 009°46'7 5.0
2018-Feb-17 03:19N 38°38' W 009°51'1 3.5
2018-Feb-17 03:00N 38°38' W 009°52'0 0.1
2018-Feb-17 02:10N 38°38' W 009°52'0 0.5
2018-Feb-17 01:55N 38°38' W 009°52'0 0.2
2018-Feb-17 01:30N 38°38' W 009°52'1 1.2
2018-Feb-17 00:59N 38°38' W 009°52'1 1.3
2018-Feb-17 00:30N 38°37' W 009°52'1 1.3
2018-Feb-17 00:01N 38°36' W 009°51'0 0.9
2018-Feb-16 23:30N 38°36' W 009°51'1 1.3
2018-Feb-16 23:00N 38°35' W 009°51'1 1.2
2018-Feb-16 22:30N 38°35' W 009°51'1 1.2
2018-Feb-16 22:00N 38°34' W 009°50'1 1.1
2018-Feb-16 21:30N 38°34' W 009°50'0 0.6
2018-Feb-16 20:53N 38°33' W 009°50'0 0.4
2018-Feb-16 20:28N 38°34' W 009°50'2 4.4
2018-Feb-16 20:00N 38°34' W 009°53'2 4.5
2018-Feb-16 19:28N 38°36' W 009°54'7 5.1
2018-Feb-16 18:07N 38°43' W 009°50'2 5.0
2018-Feb-16 17:43N 38°41' W 009°52'0 1.0
2018-Feb-16 17:29N 38°41' W 009°52'0 0.2
2018-Feb-16 16:58N 38°41' W 009°52'0 0.6
2018-Feb-16 16:30N 38°41' W 009°52'0 0.8
2018-Feb-16 16:00N 38°40' W 009°52'0 1.0
2018-Feb-16 15:30N 38°40' W 009°53'0 0.9
2018-Feb-16 14:59N 38°39' W 009°53'0 0.7
2018-Feb-16 14:29N 38°39' W 009°53'0 0.9
2018-Feb-16 14:00N 38°39' W 009°53'1 1.0
2018-Feb-16 13:30N 38°38' W 009°53'1 1.0
2018-Feb-16 12:58N 38°38' W 009°53'1 1.3
2018-Feb-16 12:30N 38°37' W 009°54'0 1.0
2018-Feb-16 12:00N 38°37' W 009°54'0 1.0
2018-Feb-16 11:30N 38°36' W 009°54'0 0.7
2018-Feb-16 11:00N 38°36' W 009°55'1 1.1
2018-Feb-16 10:30N 38°36' W 009°54'5 9.2
2018-Feb-16 10:00N 38°34' W 009°49'5 9.1
2018-Feb-16 09:30N 38°32' W 009°43'5 9.0
2018-Feb-16 08:57N 38°31' W 009°37'4 9.2
2018-Feb-16 08:30N 38°30' W 009°32'5 9.3
2018-Feb-16 08:00N 38°28' W 009°27'5 9.3
2018-Feb-16 07:29N 38°26' W 009°21'4 9.3
2018-Feb-16 07:00N 38°25' W 009°15'5 8.7
2018-Feb-16 06:28N 38°25' W 009°09'3 5.7
2018-Feb-16 06:00N 38°26' W 009°07'0 0.0
2018-Feb-15 10:02N 38°26' W 009°07'0 0.0
2018-Feb-15 09:57N 38°26' W 009°07'0 0.3
2018-Feb-15 09:21N 38°26' W 009°07'0 0.0
2018-Feb-15 09:00N 38°26' W 009°07'0 0.0
2018-Feb-15 08:30N 38°26' W 009°07'5 8.1
2018-Feb-15 07:52N 38°24' W 009°13'3 9.1
2018-Feb-15 07:29N 38°25' W 009°17'5 9.2
2018-Feb-15 06:55N 38°26' W 009°24'4 9.3
2018-Feb-15 06:28N 38°27' W 009°29'4 9.1
2018-Feb-15 06:00N 38°29' W 009°34'5 9.3
2018-Feb-15 05:27N 38°30' W 009°40'4 9.5
2018-Feb-15 04:59N 38°31' W 009°46'4 7.1
2018-Feb-15 04:27N 38°33' W 009°50'4 5.7
2018-Feb-15 03:41N 38°37' W 009°52'1 4.9
2018-Feb-15 03:30N 38°38' W 009°52'1 1.7
2018-Feb-15 03:00N 38°37' W 009°52'2 3.4
2018-Feb-15 02:30N 38°36' W 009°51'1 1.6
2018-Feb-15 02:00N 38°35' W 009°50'0 0.5
2018-Feb-15 01:30N 38°35' W 009°50'0 0.9
2018-Feb-15 01:00N 38°34' W 009°50'1 1.0
2018-Feb-15 00:30N 38°34' W 009°50'1 1.1
2018-Feb-15 00:00N 38°33' W 009°49'1 1.1
2018-Feb-14 23:30N 38°33' W 009°49'1 1.1
2018-Feb-14 23:00N 38°32' W 009°49'1 1.0
2018-Feb-14 22:30N 38°32' W 009°48'0 0.8
2018-Feb-14 22:00N 38°32' W 009°48'2 4.3
2018-Feb-14 21:30N 38°33' W 009°50'5 9.3
2018-Feb-14 21:00N 38°35' W 009°55'3 4.7
2018-Feb-14 20:22N 38°38' W 009°53'2 5.5
2018-Feb-14 19:56N 38°40' W 009°52'2 5.4
2018-Feb-14 19:30N 38°42' W 009°51'2 2.8
2018-Feb-14 18:54N 38°41' W 009°52'0 0.7
2018-Feb-14 18:28N 38°41' W 009°52'0 0.8
2018-Feb-14 18:00N 38°40' W 009°52'0 0.7
2018-Feb-14 17:26N 38°40' W 009°53'1 0.8
2018-Feb-14 15:41N 38°39' W 009°53'0 1.2
2018-Feb-14 15:25N 38°38' W 009°53'1 1.1
2018-Feb-14 14:50N 38°38' W 009°53'0 1.0
2018-Feb-14 14:30N 38°37' W 009°53'1 1.0
2018-Feb-14 13:44N 38°37' W 009°54'0 1.2
2018-Feb-14 13:28N 38°36' W 009°54'1 1.1
2018-Feb-14 13:00N 38°36' W 009°54'0 0.9
2018-Feb-14 12:30N 38°36' W 009°55'0 0.4
2018-Feb-14 11:59N 38°35' W 009°55'2 3.0
2018-Feb-14 11:28N 38°35' W 009°53'4 8.3
2018-Feb-14 10:59N 38°33' W 009°48'5 8.4
2018-Feb-14 10:22N 38°32' W 009°42'4 8.6
2018-Feb-14 09:56N 38°31' W 009°37'4 8.6
2018-Feb-14 09:29N 38°29' W 009°33'4 8.8
2018-Feb-14 09:00N 38°28' W 009°28'4 8.8
2018-Feb-14 08:30N 38°27' W 009°22'5 9.0
2018-Feb-14 07:58N 38°25' W 009°16'7 8.6
2018-Feb-14 07:11N 38°26' W 009°08'1 6.3
2018-Feb-14 07:00N 38°26' W 009°07'0 0.0
2018-Feb-14 06:20N 38°26' W 009°07'0 0.0
2018-Feb-14 06:01N 38°26' W 009°07'  
2018-Feb-11 19:56N 38°26' W 009°07'4 6.9
2018-Feb-11 19:21N 38°24' W 009°11'4 9.5
2018-Feb-11 18:53N 38°25' W 009°17'4 9.2
2018-Feb-11 18:29N 38°26' W 009°21'5 9.1
2018-Feb-11 17:58N 38°26' W 009°27'5 9.2
2018-Feb-11 17:28N 38°27' W 009°33'6 9.4
2018-Feb-11 16:51N 38°28' W 009°40'4 9.6
2018-Feb-11 16:27N 38°29' W 009°45'7 6.6
2018-Feb-11 15:21N 38°35' W 009°51'3 5.7
2018-Feb-11 14:51N 38°38' W 009°52'4 6.8
2018-Feb-11 14:13N 38°35' W 009°56'1 5.2
2018-Feb-11 14:00N 38°36' W 009°55'8 5.3
2018-Feb-11 12:33N 38°42' W 009°51'0 3.2
2018-Feb-11 12:30N 38°42' W 009°50'2 4.1
2018-Feb-11 12:00N 38°41' W 009°52'4 8.5
2018-Feb-11 11:30N 38°39' W 009°47'4 8.5
2018-Feb-11 11:00N 38°37' W 009°42'4 8.5
2018-Feb-11 10:30N 38°35' W 009°37'4 8.5
2018-Feb-11 10:00N 38°33' W 009°32'4 8.5
2018-Feb-11 09:30N 38°31' W 009°28'4 8.6
2018-Feb-11 08:59N 38°29' W 009°23'4 8.7
2018-Feb-11 08:30N 38°26' W 009°18'4 8.7
2018-Feb-11 08:00N 38°24' W 009°13'4 8.3
2018-Feb-11 07:29N 38°25' W 009°08'1 2.7
2018-Feb-11 06:59N 38°26' W 009°07'0 0.0
2018-Feb-11 06:30N 38°26' W 009°07'0 0.3
2018-Feb-11 06:00N 38°26' W 009°07'  

Dump ship's entire track history